sensor_id;sensor_type;location;lat;lon;timestamp;P1;durP1;ratioP1;P2;durP2;ratioP2
35977;SDS011;22056;0.000;0.000;2022-08-07T00:01:05;0.40;;;0.40;;
35977;SDS011;22056;0.000;0.000;2022-08-07T00:03:31;0.47;;;0.47;;
35977;SDS011;22056;0.000;0.000;2022-08-07T00:05:58;1.60;;;0.50;;
35977;SDS011;22056;0.000;0.000;2022-08-07T00:08:24;0.40;;;0.40;;
35977;SDS011;22056;0.000;0.000;2022-08-07T00:10:51;0.65;;;0.40;;
35977;SDS011;22056;0.000;0.000;2022-08-07T00:13:18;0.50;;;0.50;;
35977;SDS011;22056;0.000;0.000;2022-08-07T00:15:44;0.50;;;0.40;;
35977;SDS011;22056;0.000;0.000;2022-08-07T00:18:11;0.47;;;0.40;;
35977;SDS011;22056;0.000;0.000;2022-08-07T00:20:37;0.50;;;0.50;;
35977;SDS011;22056;0.000;0.000;2022-08-07T00:23:04;0.40;;;0.40;;
35977;SDS011;22056;0.000;0.000;2022-08-07T00:25:31;0.82;;;0.50;;
35977;SDS011;22056;0.000;0.000;2022-08-07T00:27:57;0.52;;;0.52;;
35977;SDS011;22056;0.000;0.000;2022-08-07T00:30:24;0.50;;;0.50;;
35977;SDS011;22056;0.000;0.000;2022-08-07T00:32:50;0.40;;;0.40;;
35977;SDS011;22056;0.000;0.000;2022-08-07T00:35:17;0.45;;;0.40;;
35977;SDS011;22056;0.000;0.000;2022-08-07T00:37:43;0.95;;;0.60;;
35977;SDS011;22056;0.000;0.000;2022-08-07T00:40:10;0.40;;;0.40;;
35977;SDS011;22056;0.000;0.000;2022-08-07T00:42:37;1.52;;;0.50;;
35977;SDS011;22056;0.000;0.000;2022-08-07T00:45:03;0.50;;;0.50;;
35977;SDS011;22056;0.000;0.000;2022-08-07T00:47:30;0.47;;;0.47;;
35977;SDS011;22056;0.000;0.000;2022-08-07T00:49:57;0.60;;;0.60;;
35977;SDS011;22056;0.000;0.000;2022-08-07T00:52:23;0.40;;;0.40;;
35977;SDS011;22056;0.000;0.000;2022-08-07T00:54:49;0.40;;;0.40;;
35977;SDS011;22056;0.000;0.000;2022-08-07T00:57:16;0.60;;;0.60;;
35977;SDS011;22056;0.000;0.000;2022-08-07T00:59:43;0.63;;;0.60;;
35977;SDS011;22056;0.000;0.000;2022-08-07T01:02:09;0.40;;;0.40;;
35977;SDS011;22056;0.000;0.000;2022-08-07T01:04:36;0.45;;;0.45;;
35977;SDS011;22056;0.000;0.000;2022-08-07T01:07:03;0.57;;;0.57;;
35977;SDS011;22056;0.000;0.000;2022-08-07T01:09:30;0.50;;;0.50;;
35977;SDS011;22056;0.000;0.000;2022-08-07T01:11:57;0.38;;;0.38;;
35977;SDS011;22056;0.000;0.000;2022-08-07T01:14:23;0.50;;;0.50;;
35977;SDS011;22056;0.000;0.000;2022-08-07T01:16:50;0.40;;;0.40;;
35977;SDS011;22056;0.000;0.000;2022-08-07T01:19:17;0.40;;;0.40;;
35977;SDS011;22056;0.000;0.000;2022-08-07T01:21:44;0.45;;;0.45;;
35977;SDS011;22056;0.000;0.000;2022-08-07T01:24:11;0.55;;;0.55;;
35977;SDS011;22056;0.000;0.000;2022-08-07T01:26:37;0.57;;;0.50;;
35977;SDS011;22056;0.000;0.000;2022-08-07T01:29:04;0.50;;;0.50;;
35977;SDS011;22056;0.000;0.000;2022-08-07T01:31:30;0.75;;;0.40;;
35977;SDS011;22056;0.000;0.000;2022-08-07T01:33:57;0.50;;;0.50;;
35977;SDS011;22056;0.000;0.000;2022-08-07T01:36:24;0.45;;;0.38;;
35977;SDS011;22056;0.000;0.000;2022-08-07T01:38:51;0.70;;;0.50;;
35977;SDS011;22056;0.000;0.000;2022-08-07T01:41:17;0.40;;;0.40;;
35977;SDS011;22056;0.000;0.000;2022-08-07T01:43:44;0.50;;;0.50;;
35977;SDS011;22056;0.000;0.000;2022-08-07T01:46:11;0.47;;;0.47;;
35977;SDS011;22056;0.000;0.000;2022-08-07T01:48:42;0.50;;;0.45;;
35977;SDS011;22056;0.000;0.000;2022-08-07T01:51:10;0.95;;;0.60;;
35977;SDS011;22056;0.000;0.000;2022-08-07T01:53:38;0.50;;;0.50;;
35977;SDS011;22056;0.000;0.000;2022-08-07T01:56:06;0.40;;;0.40;;
35977;SDS011;22056;0.000;0.000;2022-08-07T01:58:38;0.50;;;0.50;;
35977;SDS011;22056;0.000;0.000;2022-08-07T02:01:08;0.43;;;0.43;;
35977;SDS011;22056;0.000;0.000;2022-08-07T02:03:37;0.40;;;0.40;;
35977;SDS011;22056;0.000;0.000;2022-08-07T02:06:06;0.55;;;0.52;;
35977;SDS011;22056;0.000;0.000;2022-08-07T02:08:35;0.40;;;0.40;;
35977;SDS011;22056;0.000;0.000;2022-08-07T02:11:05;0.45;;;0.45;;
35977;SDS011;22056;0.000;0.000;2022-08-07T02:13:32;0.50;;;0.50;;
35977;SDS011;22056;0.000;0.000;2022-08-07T02:15:59;0.60;;;0.60;;
35977;SDS011;22056;0.000;0.000;2022-08-07T02:18:27;0.50;;;0.50;;
35977;SDS011;22056;0.000;0.000;2022-08-07T02:20:56;0.40;;;0.40;;
35977;SDS011;22056;0.000;0.000;2022-08-07T02:23:23;0.40;;;0.40;;
35977;SDS011;22056;0.000;0.000;2022-08-07T02:25:51;0.50;;;0.50;;
35977;SDS011;22056;0.000;0.000;2022-08-07T02:28:18;0.40;;;0.40;;
35977;SDS011;22056;0.000;0.000;2022-08-07T02:30:45;0.40;;;0.40;;
35977;SDS011;22056;0.000;0.000;2022-08-07T02:33:12;0.57;;;0.40;;
35977;SDS011;22056;0.000;0.000;2022-08-07T02:35:39;0.40;;;0.40;;
35977;SDS011;22056;0.000;0.000;2022-08-07T02:38:06;0.40;;;0.40;;
35977;SDS011;22056;0.000;0.000;2022-08-07T02:40:33;0.40;;;0.40;;
35977;SDS011;22056;0.000;0.000;2022-08-07T02:43:02;0.40;;;0.40;;
35977;SDS011;22056;0.000;0.000;2022-08-07T02:45:30;0.40;;;0.40;;
35977;SDS011;22056;0.000;0.000;2022-08-07T02:47:57;0.40;;;0.40;;
35977;SDS011;22056;0.000;0.000;2022-08-07T02:50:23;0.50;;;0.50;;
35977;SDS011;22056;0.000;0.000;2022-08-07T02:52:55;0.40;;;0.40;;
35977;SDS011;22056;0.000;0.000;2022-08-07T02:55:24;0.47;;;0.47;;
35977;SDS011;22056;0.000;0.000;2022-08-07T02:57:51;0.30;;;0.30;;
35977;SDS011;22056;0.000;0.000;2022-08-07T03:00:17;0.30;;;0.30;;
35977;SDS011;22056;0.000;0.000;2022-08-07T03:02:45;0.50;;;0.40;;
35977;SDS011;22056;0.000;0.000;2022-08-07T03:05:12;0.55;;;0.40;;
35977;SDS011;22056;0.000;0.000;2022-08-07T03:07:39;0.40;;;0.40;;
35977;SDS011;22056;0.000;0.000;2022-08-07T03:10:06;0.30;;;0.30;;
35977;SDS011;22056;0.000;0.000;2022-08-07T03:12:33;0.40;;;0.40;;
35977;SDS011;22056;0.000;0.000;2022-08-07T03:14:59;0.70;;;0.40;;
35977;SDS011;22056;0.000;0.000;2022-08-07T03:17:26;0.50;;;0.45;;
35977;SDS011;22056;0.000;0.000;2022-08-07T03:19:53;0.43;;;0.43;;
35977;SDS011;22056;0.000;0.000;2022-08-07T03:22:20;0.50;;;0.50;;
35977;SDS011;22056;0.000;0.000;2022-08-07T03:24:47;0.30;;;0.30;;
35977;SDS011;22056;0.000;0.000;2022-08-07T03:27:13;0.40;;;0.40;;
35977;SDS011;22056;0.000;0.000;2022-08-07T03:29:49;0.50;;;0.50;;
35977;SDS011;22056;0.000;0.000;2022-08-07T03:32:17;0.40;;;0.40;;
35977;SDS011;22056;0.000;0.000;2022-08-07T03:34:44;0.50;;;0.50;;
35977;SDS011;22056;0.000;0.000;2022-08-07T03:37:11;0.40;;;0.40;;
35977;SDS011;22056;0.000;0.000;2022-08-07T03:39:38;0.40;;;0.40;;
35977;SDS011;22056;0.000;0.000;2022-08-07T03:42:05;0.40;;;0.40;;
35977;SDS011;22056;0.000;0.000;2022-08-07T03:44:32;0.60;;;0.50;;
35977;SDS011;22056;0.000;0.000;2022-08-07T03:46:59;0.40;;;0.40;;
35977;SDS011;22056;0.000;0.000;2022-08-07T03:49:25;0.30;;;0.30;;
35977;SDS011;22056;0.000;0.000;2022-08-07T03:51:52;0.43;;;0.40;;
35977;SDS011;22056;0.000;0.000;2022-08-07T03:54:19;0.47;;;0.47;;
35977;SDS011;22056;0.000;0.000;2022-08-07T03:56:46;0.40;;;0.40;;
35977;SDS011;22056;0.000;0.000;2022-08-07T03:59:12;0.40;;;0.40;;
35977;SDS011;22056;0.000;0.000;2022-08-07T04:01:39;0.40;;;0.40;;
35977;SDS011;22056;0.000;0.000;2022-08-07T04:04:06;0.40;;;0.40;;
35977;SDS011;22056;0.000;0.000;2022-08-07T04:06:33;0.40;;;0.40;;
35977;SDS011;22056;0.000;0.000;2022-08-07T04:09:01;0.90;;;0.40;;
35977;SDS011;22056;0.000;0.000;2022-08-07T04:11:28;0.70;;;0.40;;
35977;SDS011;22056;0.000;0.000;2022-08-07T04:13:54;0.40;;;0.40;;
35977;SDS011;22056;0.000;0.000;2022-08-07T04:16:21;0.35;;;0.35;;
35977;SDS011;22056;0.000;0.000;2022-08-07T04:18:47;0.40;;;0.40;;
35977;SDS011;22056;0.000;0.000;2022-08-07T04:21:13;0.73;;;0.30;;
35977;SDS011;22056;0.000;0.000;2022-08-07T04:23:40;0.43;;;0.40;;
35977;SDS011;22056;0.000;0.000;2022-08-07T04:26:06;0.40;;;0.40;;
35977;SDS011;22056;0.000;0.000;2022-08-07T04:28:33;0.40;;;0.40;;
35977;SDS011;22056;0.000;0.000;2022-08-07T04:30:59;0.40;;;0.40;;
35977;SDS011;22056;0.000;0.000;2022-08-07T04:33:26;0.38;;;0.30;;
35977;SDS011;22056;0.000;0.000;2022-08-07T04:35:52;0.32;;;0.32;;
35977;SDS011;22056;0.000;0.000;2022-08-07T04:38:18;0.40;;;0.40;;
35977;SDS011;22056;0.000;0.000;2022-08-07T04:40:45;0.47;;;0.47;;
35977;SDS011;22056;0.000;0.000;2022-08-07T04:43:12;0.40;;;0.40;;
35977;SDS011;22056;0.000;0.000;2022-08-07T04:50:59;0.38;;;0.38;;
35977;SDS011;22056;0.000;0.000;2022-08-07T04:53:30;0.30;;;0.30;;
35977;SDS011;22056;0.000;0.000;2022-08-07T04:56:19;0.40;;;0.40;;
35977;SDS011;22056;0.000;0.000;2022-08-07T04:58:48;0.40;;;0.40;;
35977;SDS011;22056;0.000;0.000;2022-08-07T05:01:20;0.30;;;0.30;;
35977;SDS011;22056;0.000;0.000;2022-08-07T05:04:08;0.40;;;0.40;;
35977;SDS011;22056;0.000;0.000;2022-08-07T05:06:37;0.40;;;0.40;;
35977;SDS011;22056;0.000;0.000;2022-08-07T05:11:51;0.43;;;0.40;;
35977;SDS011;22056;0.000;0.000;2022-08-07T05:14:25;0.40;;;0.40;;
35977;SDS011;22056;0.000;0.000;2022-08-07T05:16:53;0.50;;;0.40;;
35977;SDS011;22056;0.000;0.000;2022-08-07T05:19:23;0.30;;;0.30;;
35977;SDS011;22056;0.000;0.000;2022-08-07T05:21:51;0.50;;;0.50;;
35977;SDS011;22056;0.000;0.000;2022-08-07T05:24:19;0.40;;;0.40;;
35977;SDS011;22056;0.000;0.000;2022-08-07T05:26:47;0.40;;;0.40;;
35977;SDS011;22056;0.000;0.000;2022-08-07T05:29:14;0.43;;;0.40;;
35977;SDS011;22056;0.000;0.000;2022-08-07T05:31:42;0.38;;;0.38;;
35977;SDS011;22056;0.000;0.000;2022-08-07T05:34:11;0.45;;;0.40;;
35977;SDS011;22056;0.000;0.000;2022-08-07T05:36:38;0.30;;;0.30;;
35977;SDS011;22056;0.000;0.000;2022-08-07T05:39:05;0.30;;;0.30;;
35977;SDS011;22056;0.000;0.000;2022-08-07T05:41:32;0.50;;;0.40;;
35977;SDS011;22056;0.000;0.000;2022-08-07T05:43:58;0.40;;;0.40;;
35977;SDS011;22056;0.000;0.000;2022-08-07T05:46:25;0.40;;;0.40;;
35977;SDS011;22056;0.000;0.000;2022-08-07T05:48:51;0.35;;;0.35;;
35977;SDS011;22056;0.000;0.000;2022-08-07T05:51:18;0.43;;;0.43;;
35977;SDS011;22056;0.000;0.000;2022-08-07T05:53:46;0.40;;;0.40;;
35977;SDS011;22056;0.000;0.000;2022-08-07T05:56:13;0.40;;;0.40;;
35977;SDS011;22056;0.000;0.000;2022-08-07T05:58:40;0.40;;;0.40;;
35977;SDS011;22056;0.000;0.000;2022-08-07T06:01:08;0.40;;;0.40;;
35977;SDS011;22056;0.000;0.000;2022-08-07T06:03:35;0.47;;;0.38;;
35977;SDS011;22056;0.000;0.000;2022-08-07T06:06:02;0.50;;;0.50;;
35977;SDS011;22056;0.000;0.000;2022-08-07T06:08:28;0.40;;;0.40;;
35977;SDS011;22056;0.000;0.000;2022-08-07T06:10:55;0.40;;;0.40;;
35977;SDS011;22056;0.000;0.000;2022-08-07T06:13:21;0.40;;;0.40;;
35977;SDS011;22056;0.000;0.000;2022-08-07T06:15:48;0.30;;;0.30;;
35977;SDS011;22056;0.000;0.000;2022-08-07T06:18:14;0.40;;;0.40;;
35977;SDS011;22056;0.000;0.000;2022-08-07T06:20:42;0.40;;;0.40;;
35977;SDS011;22056;0.000;0.000;2022-08-07T06:23:09;0.52;;;0.50;;
35977;SDS011;22056;0.000;0.000;2022-08-07T06:25:36;0.45;;;0.32;;
35977;SDS011;22056;0.000;0.000;2022-08-07T06:28:07;0.50;;;0.50;;
35977;SDS011;22056;0.000;0.000;2022-08-07T06:30:35;0.40;;;0.40;;
35977;SDS011;22056;0.000;0.000;2022-08-07T06:33:02;0.90;;;0.57;;
35977;SDS011;22056;0.000;0.000;2022-08-07T06:35:28;0.40;;;0.40;;
35977;SDS011;22056;0.000;0.000;2022-08-07T06:37:54;0.40;;;0.40;;
35977;SDS011;22056;0.000;0.000;2022-08-07T06:40:22;0.40;;;0.40;;
35977;SDS011;22056;0.000;0.000;2022-08-07T06:42:49;0.30;;;0.30;;
35977;SDS011;22056;0.000;0.000;2022-08-07T06:45:17;0.50;;;0.50;;
35977;SDS011;22056;0.000;0.000;2022-08-07T06:47:43;0.30;;;0.30;;
35977;SDS011;22056;0.000;0.000;2022-08-07T06:50:10;0.57;;;0.43;;
35977;SDS011;22056;0.000;0.000;2022-08-07T06:52:37;0.40;;;0.40;;
35977;SDS011;22056;0.000;0.000;2022-08-07T06:55:04;0.40;;;0.40;;
35977;SDS011;22056;0.000;0.000;2022-08-07T06:57:31;0.45;;;0.45;;
35977;SDS011;22056;0.000;0.000;2022-08-07T06:59:58;0.40;;;0.40;;
35977;SDS011;22056;0.000;0.000;2022-08-07T07:02:25;0.82;;;0.45;;
35977;SDS011;22056;0.000;0.000;2022-08-07T07:04:52;0.40;;;0.40;;
35977;SDS011;22056;0.000;0.000;2022-08-07T07:07:18;0.43;;;0.43;;
35977;SDS011;22056;0.000;0.000;2022-08-07T07:09:45;0.47;;;0.47;;
35977;SDS011;22056;0.000;0.000;2022-08-07T07:17:30;0.50;;;0.40;;
35977;SDS011;22056;0.000;0.000;2022-08-07T07:19:58;0.40;;;0.40;;
35977;SDS011;22056;0.000;0.000;2022-08-07T07:22:25;0.45;;;0.45;;
35977;SDS011;22056;0.000;0.000;2022-08-07T07:24:53;0.40;;;0.40;;
35977;SDS011;22056;0.000;0.000;2022-08-07T07:27:20;0.40;;;0.40;;
35977;SDS011;22056;0.000;0.000;2022-08-07T07:29:50;0.43;;;0.43;;
35977;SDS011;22056;0.000;0.000;2022-08-07T07:32:17;0.40;;;0.40;;
35977;SDS011;22056;0.000;0.000;2022-08-07T07:34:45;0.55;;;0.50;;
35977;SDS011;22056;0.000;0.000;2022-08-07T07:37:12;0.50;;;0.50;;
35977;SDS011;22056;0.000;0.000;2022-08-07T07:39:39;0.40;;;0.40;;
35977;SDS011;22056;0.000;0.000;2022-08-07T07:42:07;0.35;;;0.35;;
35977;SDS011;22056;0.000;0.000;2022-08-07T07:44:35;0.30;;;0.30;;
35977;SDS011;22056;0.000;0.000;2022-08-07T07:47:03;0.40;;;0.40;;
35977;SDS011;22056;0.000;0.000;2022-08-07T07:49:31;0.35;;;0.35;;
35977;SDS011;22056;0.000;0.000;2022-08-07T07:51:59;0.35;;;0.35;;
35977;SDS011;22056;0.000;0.000;2022-08-07T07:54:26;0.40;;;0.40;;
35977;SDS011;22056;0.000;0.000;2022-08-07T07:56:53;0.40;;;0.40;;
35977;SDS011;22056;0.000;0.000;2022-08-07T07:59:20;0.30;;;0.30;;
35977;SDS011;22056;0.000;0.000;2022-08-07T08:01:47;0.40;;;0.40;;
35977;SDS011;22056;0.000;0.000;2022-08-07T08:04:14;0.50;;;0.50;;
35977;SDS011;22056;0.000;0.000;2022-08-07T08:06:42;0.40;;;0.40;;
35977;SDS011;22056;0.000;0.000;2022-08-07T08:09:09;0.40;;;0.40;;
35977;SDS011;22056;0.000;0.000;2022-08-07T08:11:37;0.30;;;0.30;;
35977;SDS011;22056;0.000;0.000;2022-08-07T08:14:03;0.40;;;0.40;;
35977;SDS011;22056;0.000;0.000;2022-08-07T08:16:33;0.30;;;0.30;;
35977;SDS011;22056;0.000;0.000;2022-08-07T08:19:01;0.40;;;0.40;;
35977;SDS011;22056;0.000;0.000;2022-08-07T08:21:28;0.40;;;0.40;;
35977;SDS011;22056;0.000;0.000;2022-08-07T08:24:13;0.40;;;0.40;;
35977;SDS011;22056;0.000;0.000;2022-08-07T08:27:00;0.43;;;0.40;;
35977;SDS011;22056;0.000;0.000;2022-08-07T08:32:11;1.48;;;0.50;;
35977;SDS011;22056;0.000;0.000;2022-08-07T08:34:38;0.30;;;0.30;;
35977;SDS011;22056;0.000;0.000;2022-08-07T08:37:05;0.50;;;0.30;;
35977;SDS011;22056;0.000;0.000;2022-08-07T08:39:32;1.17;;;0.30;;
35977;SDS011;22056;0.000;0.000;2022-08-07T08:42:03;0.30;;;0.30;;
35977;SDS011;22056;0.000;0.000;2022-08-07T08:44:42;0.40;;;0.40;;
35977;SDS011;22056;0.000;0.000;2022-08-07T08:47:26;0.40;;;0.40;;
35977;SDS011;22056;0.000;0.000;2022-08-07T08:50:13;0.30;;;0.30;;
35977;SDS011;22056;0.000;0.000;2022-08-07T08:55:29;0.20;;;0.20;;
35977;SDS011;22056;0.000;0.000;2022-08-07T08:58:11;0.30;;;0.30;;
35977;SDS011;22056;0.000;0.000;2022-08-07T09:00:41;0.43;;;0.30;;
35977;SDS011;22056;0.000;0.000;2022-08-07T09:03:12;0.30;;;0.30;;
35977;SDS011;22056;0.000;0.000;2022-08-07T09:05:50;0.30;;;0.30;;
35977;SDS011;22056;0.000;0.000;2022-08-07T09:13:38;0.50;;;0.40;;
35977;SDS011;22056;0.000;0.000;2022-08-07T09:16:07;0.30;;;0.30;;
35977;SDS011;22056;0.000;0.000;2022-08-07T09:19:01;0.30;;;0.30;;
35977;SDS011;22056;0.000;0.000;2022-08-07T09:26:43;1.33;;;0.38;;
35977;SDS011;22056;0.000;0.000;2022-08-07T09:29:14;0.20;;;0.20;;
35977;SDS011;22056;0.000;0.000;2022-08-07T09:31:57;0.30;;;0.30;;
35977;SDS011;22056;0.000;0.000;2022-08-07T09:34:27;0.40;;;0.40;;
35977;SDS011;22056;0.000;0.000;2022-08-07T09:37:06;0.50;;;0.40;;
35977;SDS011;22056;0.000;0.000;2022-08-07T09:44:57;0.40;;;0.40;;
35977;SDS011;22056;0.000;0.000;2022-08-07T09:47:43;0.38;;;0.38;;
35977;SDS011;22056;0.000;0.000;2022-08-07T09:52:47;0.40;;;0.30;;
35977;SDS011;22056;0.000;0.000;2022-08-07T10:00:12;0.40;;;0.40;;
35977;SDS011;22056;0.000;0.000;2022-08-07T10:05:25;0.30;;;0.30;;
35977;SDS011;22056;0.000;0.000;2022-08-07T10:07:58;0.30;;;0.30;;
35977;SDS011;22056;0.000;0.000;2022-08-07T10:13:13;0.30;;;0.30;;
35977;SDS011;22056;0.000;0.000;2022-08-07T10:15:47;0.28;;;0.28;;
35977;SDS011;22056;0.000;0.000;2022-08-07T10:21:07;0.30;;;0.30;;
35977;SDS011;22056;0.000;0.000;2022-08-07T10:23:48;0.30;;;0.30;;
35977;SDS011;22056;0.000;0.000;2022-08-07T10:41:43;0.30;;;0.30;;
35977;SDS011;22056;0.000;0.000;2022-08-07T10:44:14;0.30;;;0.30;;
35977;SDS011;22056;0.000;0.000;2022-08-07T10:49:36;0.30;;;0.30;;
35977;SDS011;22056;0.000;0.000;2022-08-07T10:52:05;0.20;;;0.20;;
35977;SDS011;22056;0.000;0.000;2022-08-07T10:54:52;0.22;;;0.22;;
35977;SDS011;22056;0.000;0.000;2022-08-07T10:57:23;0.20;;;0.20;;
35977;SDS011;22056;0.000;0.000;2022-08-07T11:02:22;0.30;;;0.30;;
35977;SDS011;22056;0.000;0.000;2022-08-07T11:09:58;0.30;;;0.30;;
35977;SDS011;22056;0.000;0.000;2022-08-07T11:12:46;0.25;;;0.25;;
35977;SDS011;22056;0.000;0.000;2022-08-07T11:15:16;0.30;;;0.30;;
35977;SDS011;22056;0.000;0.000;2022-08-07T11:17:47;0.30;;;0.30;;
35977;SDS011;22056;0.000;0.000;2022-08-07T11:20:24;0.30;;;0.30;;
35977;SDS011;22056;0.000;0.000;2022-08-07T11:27:49;0.30;;;0.30;;
35977;SDS011;22056;0.000;0.000;2022-08-07T11:30:17;0.30;;;0.30;;
35977;SDS011;22056;0.000;0.000;2022-08-07T11:32:46;0.22;;;0.22;;
35977;SDS011;22056;0.000;0.000;2022-08-07T11:35:17;0.38;;;0.30;;
35977;SDS011;22056;0.000;0.000;2022-08-07T11:37:49;0.30;;;0.30;;
35977;SDS011;22056;0.000;0.000;2022-08-07T11:43:12;0.20;;;0.20;;
35977;SDS011;22056;0.000;0.000;2022-08-07T12:00:49;0.25;;;0.25;;
35977;SDS011;22056;0.000;0.000;2022-08-07T12:05:57;0.47;;;0.30;;
35977;SDS011;22056;0.000;0.000;2022-08-07T12:08:32;0.32;;;0.32;;
35977;SDS011;22056;0.000;0.000;2022-08-07T12:11:09;0.30;;;0.30;;
35977;SDS011;22056;0.000;0.000;2022-08-07T12:13:43;0.30;;;0.30;;
35977;SDS011;22056;0.000;0.000;2022-08-07T12:16:15;0.30;;;0.30;;
35977;SDS011;22056;0.000;0.000;2022-08-07T12:18:48;0.20;;;0.20;;
35977;SDS011;22056;0.000;0.000;2022-08-07T12:23:48;0.20;;;0.20;;
35977;SDS011;22056;0.000;0.000;2022-08-07T12:26:18;0.30;;;0.30;;
35977;SDS011;22056;0.000;0.000;2022-08-07T12:34:05;0.30;;;0.30;;
35977;SDS011;22056;0.000;0.000;2022-08-07T12:36:32;0.20;;;0.20;;
35977;SDS011;22056;0.000;0.000;2022-08-07T12:39:03;0.20;;;0.20;;
35977;SDS011;22056;0.000;0.000;2022-08-07T12:41:30;0.22;;;0.22;;
35977;SDS011;22056;0.000;0.000;2022-08-07T12:43:59;0.30;;;0.30;;
35977;SDS011;22056;0.000;0.000;2022-08-07T12:47:03;0.30;;;0.30;;
35977;SDS011;22056;0.000;0.000;2022-08-07T12:49:32;0.30;;;0.30;;
35977;SDS011;22056;0.000;0.000;2022-08-07T12:52:03;0.27;;;0.27;;
35977;SDS011;22056;0.000;0.000;2022-08-07T12:54:31;0.40;;;0.30;;
35977;SDS011;22056;0.000;0.000;2022-08-07T12:57:00;0.20;;;0.20;;
35977;SDS011;22056;0.000;0.000;2022-08-07T12:59:30;0.30;;;0.30;;
35977;SDS011;22056;0.000;0.000;2022-08-07T13:12:36;0.30;;;0.30;;
35977;SDS011;22056;0.000;0.000;2022-08-07T13:18:15;0.30;;;0.30;;
35977;SDS011;22056;0.000;0.000;2022-08-07T13:20:46;0.30;;;0.30;;
35977;SDS011;22056;0.000;0.000;2022-08-07T13:23:25;0.35;;;0.35;;
35977;SDS011;22056;0.000;0.000;2022-08-07T13:25:54;0.30;;;0.30;;
35977;SDS011;22056;0.000;0.000;2022-08-07T13:28:27;0.30;;;0.30;;
35977;SDS011;22056;0.000;0.000;2022-08-07T13:31:06;0.28;;;0.28;;
35977;SDS011;22056;0.000;0.000;2022-08-07T13:36:08;0.35;;;0.35;;
35977;SDS011;22056;0.000;0.000;2022-08-07T13:38:39;0.30;;;0.30;;
35977;SDS011;22056;0.000;0.000;2022-08-07T13:43:40;0.40;;;0.40;;
35977;SDS011;22056;0.000;0.000;2022-08-07T13:46:06;0.30;;;0.30;;
35977;SDS011;22056;0.000;0.000;2022-08-07T13:48:33;0.20;;;0.20;;
35977;SDS011;22056;0.000;0.000;2022-08-07T13:51:01;0.20;;;0.20;;
35977;SDS011;22056;0.000;0.000;2022-08-07T13:53:29;0.35;;;0.35;;
35977;SDS011;22056;0.000;0.000;2022-08-07T13:55:57;0.32;;;0.32;;
35977;SDS011;22056;0.000;0.000;2022-08-07T13:58:24;0.30;;;0.30;;
35977;SDS011;22056;0.000;0.000;2022-08-07T14:01:15;0.30;;;0.30;;
35977;SDS011;22056;0.000;0.000;2022-08-07T14:03:42;0.30;;;0.30;;
35977;SDS011;22056;0.000;0.000;2022-08-07T14:06:09;0.38;;;0.32;;
35977;SDS011;22056;0.000;0.000;2022-08-07T14:08:42;0.30;;;0.30;;
35977;SDS011;22056;0.000;0.000;2022-08-07T14:11:11;0.30;;;0.30;;
35977;SDS011;22056;0.000;0.000;2022-08-07T14:13:37;0.30;;;0.30;;
35977;SDS011;22056;0.000;0.000;2022-08-07T14:16:06;0.30;;;0.30;;
35977;SDS011;22056;0.000;0.000;2022-08-07T14:18:54;0.30;;;0.30;;
35977;SDS011;22056;0.000;0.000;2022-08-07T14:21:28;0.30;;;0.30;;
35977;SDS011;22056;0.000;0.000;2022-08-07T14:23:57;0.30;;;0.30;;
35977;SDS011;22056;0.000;0.000;2022-08-07T14:26:25;0.57;;;0.30;;
35977;SDS011;22056;0.000;0.000;2022-08-07T14:28:54;0.30;;;0.30;;
35977;SDS011;22056;0.000;0.000;2022-08-07T14:31:22;0.30;;;0.30;;
35977;SDS011;22056;0.000;0.000;2022-08-07T14:33:49;0.30;;;0.30;;
35977;SDS011;22056;0.000;0.000;2022-08-07T14:36:16;0.28;;;0.28;;
35977;SDS011;22056;0.000;0.000;2022-08-07T14:38:43;0.30;;;0.30;;
35977;SDS011;22056;0.000;0.000;2022-08-07T14:41:11;0.28;;;0.28;;
35977;SDS011;22056;0.000;0.000;2022-08-07T14:43:42;0.30;;;0.30;;
35977;SDS011;22056;0.000;0.000;2022-08-07T14:46:10;0.30;;;0.30;;
35977;SDS011;22056;0.000;0.000;2022-08-07T14:48:37;0.30;;;0.30;;
35977;SDS011;22056;0.000;0.000;2022-08-07T14:51:06;0.30;;;0.30;;
35977;SDS011;22056;0.000;0.000;2022-08-07T14:53:36;0.30;;;0.30;;
35977;SDS011;22056;0.000;0.000;2022-08-07T14:56:06;0.30;;;0.30;;
35977;SDS011;22056;0.000;0.000;2022-08-07T14:58:34;0.30;;;0.30;;
35977;SDS011;22056;0.000;0.000;2022-08-07T15:01:02;0.30;;;0.30;;
35977;SDS011;22056;0.000;0.000;2022-08-07T15:03:29;0.28;;;0.28;;
35977;SDS011;22056;0.000;0.000;2022-08-07T15:05:57;0.30;;;0.30;;
35977;SDS011;22056;0.000;0.000;2022-08-07T15:08:28;0.32;;;0.32;;
35977;SDS011;22056;0.000;0.000;2022-08-07T15:10:57;0.20;;;0.20;;
35977;SDS011;22056;0.000;0.000;2022-08-07T15:13:25;0.30;;;0.30;;
35977;SDS011;22056;0.000;0.000;2022-08-07T15:15:55;0.30;;;0.30;;
35977;SDS011;22056;0.000;0.000;2022-08-07T15:18:55;0.30;;;0.30;;
35977;SDS011;22056;0.000;0.000;2022-08-07T15:21:25;0.30;;;0.30;;
35977;SDS011;22056;0.000;0.000;2022-08-07T15:23:54;0.30;;;0.30;;
35977;SDS011;22056;0.000;0.000;2022-08-07T15:26:23;0.40;;;0.30;;
35977;SDS011;22056;0.000;0.000;2022-08-07T15:28:56;0.30;;;0.30;;
35977;SDS011;22056;0.000;0.000;2022-08-07T15:31:23;0.22;;;0.22;;
35977;SDS011;22056;0.000;0.000;2022-08-07T15:33:55;0.40;;;0.40;;
35977;SDS011;22056;0.000;0.000;2022-08-07T15:36:23;0.20;;;0.20;;
35977;SDS011;22056;0.000;0.000;2022-08-07T15:38:49;0.30;;;0.30;;
35977;SDS011;22056;0.000;0.000;2022-08-07T15:41:17;0.30;;;0.30;;
35977;SDS011;22056;0.000;0.000;2022-08-07T15:43:56;0.30;;;0.30;;
35977;SDS011;22056;0.000;0.000;2022-08-07T15:46:23;0.17;;;0.17;;
35977;SDS011;22056;0.000;0.000;2022-08-07T15:48:52;0.40;;;0.40;;
35977;SDS011;22056;0.000;0.000;2022-08-07T15:51:19;0.30;;;0.30;;
35977;SDS011;22056;0.000;0.000;2022-08-07T15:53:51;0.30;;;0.30;;
35977;SDS011;22056;0.000;0.000;2022-08-07T15:56:23;0.40;;;0.33;;
35977;SDS011;22056;0.000;0.000;2022-08-07T15:58:58;0.20;;;0.20;;
35977;SDS011;22056;0.000;0.000;2022-08-07T16:03:58;0.25;;;0.25;;
35977;SDS011;22056;0.000;0.000;2022-08-07T16:06:29;0.30;;;0.30;;
35977;SDS011;22056;0.000;0.000;2022-08-07T16:09:03;0.30;;;0.30;;
35977;SDS011;22056;0.000;0.000;2022-08-07T16:11:42;0.20;;;0.20;;
35977;SDS011;22056;0.000;0.000;2022-08-07T16:30:23;0.30;;;0.30;;
35977;SDS011;22056;0.000;0.000;2022-08-07T16:35:48;0.30;;;0.30;;
35977;SDS011;22056;0.000;0.000;2022-08-07T16:43:54;0.30;;;0.30;;
35977;SDS011;22056;0.000;0.000;2022-08-07T16:52:21;0.25;;;0.25;;
35977;SDS011;22056;0.000;0.000;2022-08-07T16:54:59;0.20;;;0.20;;
35977;SDS011;22056;0.000;0.000;2022-08-07T16:57:31;0.30;;;0.30;;
35977;SDS011;22056;0.000;0.000;2022-08-07T17:02:35;0.22;;;0.22;;
35977;SDS011;22056;0.000;0.000;2022-08-07T17:07:56;0.30;;;0.30;;
35977;SDS011;22056;0.000;0.000;2022-08-07T17:10:44;0.52;;;0.30;;
35977;SDS011;22056;0.000;0.000;2022-08-07T17:16:02;0.20;;;0.20;;
35977;SDS011;22056;0.000;0.000;2022-08-07T17:18:36;0.30;;;0.30;;
35977;SDS011;22056;0.000;0.000;2022-08-07T17:21:04;0.38;;;0.20;;
35977;SDS011;22056;0.000;0.000;2022-08-07T17:28:42;0.22;;;0.22;;
35977;SDS011;22056;0.000;0.000;2022-08-07T17:31:14;0.35;;;0.35;;
35977;SDS011;22056;0.000;0.000;2022-08-07T17:33:50;0.30;;;0.30;;
35977;SDS011;22056;0.000;0.000;2022-08-07T17:36:17;0.20;;;0.20;;
35977;SDS011;22056;0.000;0.000;2022-08-07T17:39:02;0.20;;;0.20;;
35977;SDS011;22056;0.000;0.000;2022-08-07T17:41:32;0.30;;;0.20;;
35977;SDS011;22056;0.000;0.000;2022-08-07T17:44:06;0.28;;;0.28;;
35977;SDS011;22056;0.000;0.000;2022-08-07T17:46:39;0.20;;;0.20;;
35977;SDS011;22056;0.000;0.000;2022-08-07T17:49:18;0.20;;;0.20;;
35977;SDS011;22056;0.000;0.000;2022-08-07T17:51:49;0.20;;;0.20;;
35977;SDS011;22056;0.000;0.000;2022-08-07T17:54:27;0.30;;;0.30;;
35977;SDS011;22056;0.000;0.000;2022-08-07T17:57:00;0.30;;;0.30;;
35977;SDS011;22056;0.000;0.000;2022-08-07T17:59:49;0.30;;;0.30;;
35977;SDS011;22056;0.000;0.000;2022-08-07T18:05:02;0.22;;;0.22;;
35977;SDS011;22056;0.000;0.000;2022-08-07T18:10:07;0.30;;;0.30;;
35977;SDS011;22056;0.000;0.000;2022-08-07T18:12:40;0.20;;;0.20;;
35977;SDS011;22056;0.000;0.000;2022-08-07T18:15:29;0.20;;;0.20;;